createdAt,value
2022-07-26T00:00:23.570Z,3.03
2022-07-26T00:00:55.075Z,3.22
2022-07-26T00:01:31.781Z,3.00
2022-07-26T00:02:04.852Z,2.30
2022-07-26T00:02:36.629Z,2.80
2022-07-26T00:03:08.277Z,2.55
2022-07-26T00:03:39.725Z,2.40
2022-07-26T00:04:12.164Z,3.42
2022-07-26T00:04:43.590Z,2.60
2022-07-26T00:05:18.820Z,2.15
2022-07-26T00:06:09.042Z,2.22
2022-07-26T00:06:40.552Z,2.50
2022-07-26T00:07:12.005Z,2.67
2022-07-26T00:07:44.423Z,3.30
2022-07-26T00:08:15.913Z,2.08
2022-07-26T00:08:48.487Z,2.63
2022-07-26T00:09:20.007Z,2.88
2022-07-26T00:09:51.394Z,2.88
2022-07-26T00:10:22.829Z,2.30
2022-07-26T00:10:54.256Z,2.10
2022-07-26T00:11:26.995Z,2.28
2022-07-26T00:11:58.406Z,2.45
2022-07-26T00:12:29.812Z,2.45
2022-07-26T00:13:01.251Z,2.23
2022-07-26T00:13:32.730Z,3.28
2022-07-26T00:14:06.820Z,2.20
2022-07-26T00:14:38.344Z,2.95
2022-07-26T00:15:11.045Z,2.38
2022-07-26T00:15:43.218Z,2.83
2022-07-26T00:16:14.867Z,2.67
2022-07-26T00:16:46.491Z,2.90
2022-07-26T00:17:18.065Z,2.60
2022-07-26T00:17:49.522Z,2.38
2022-07-26T00:18:21.088Z,2.63
2022-07-26T00:18:52.853Z,2.00
2022-07-26T00:19:24.300Z,2.78
2022-07-26T00:19:55.693Z,2.40
2022-07-26T00:20:27.778Z,2.60
2022-07-26T00:21:01.294Z,2.13
2022-07-26T00:21:34.688Z,2.60
2022-07-26T00:22:24.647Z,2.58
2022-07-26T00:22:56.174Z,3.08
2022-07-26T00:23:27.974Z,2.30
2022-07-26T00:23:59.422Z,2.27
2022-07-26T00:24:35.304Z,2.63
2022-07-26T00:25:09.085Z,2.30
2022-07-26T00:25:40.752Z,3.08
2022-07-26T00:26:12.224Z,2.30
2022-07-26T00:26:43.633Z,2.85
2022-07-26T00:27:15.073Z,2.40
2022-07-26T00:27:46.497Z,2.17
2022-07-26T00:28:18.047Z,3.35
2022-07-26T00:28:49.708Z,2.60
2022-07-26T00:29:21.111Z,3.23
2022-07-26T00:29:52.638Z,2.70
2022-07-26T00:30:24.751Z,2.70
2022-07-26T00:30:56.184Z,2.85
2022-07-26T00:32:16.369Z,2.63
2022-07-26T00:32:47.963Z,3.35
2022-07-26T00:33:19.449Z,2.75
2022-07-26T00:33:52.610Z,2.53
2022-07-26T00:34:42.641Z,2.70
2022-07-26T00:35:14.101Z,2.63
2022-07-26T00:35:46.990Z,2.75
2022-07-26T00:36:18.380Z,3.15
2022-07-26T00:36:49.777Z,2.95
2022-07-26T00:37:21.368Z,2.50
2022-07-26T00:38:11.281Z,2.45
2022-07-26T00:39:01.144Z,2.30
2022-07-26T00:39:32.642Z,2.30
2022-07-26T00:40:05.891Z,2.33
2022-07-26T00:40:59.153Z,2.63
2022-07-26T00:41:30.562Z,3.10
2022-07-26T00:42:01.978Z,3.10
2022-07-26T00:42:33.618Z,2.75
2022-07-26T00:43:05.049Z,2.97
2022-07-26T00:43:36.546Z,2.90
2022-07-26T00:44:08.019Z,3.58
2022-07-26T00:44:45.259Z,3.10
2022-07-26T00:45:17.089Z,2.50
2022-07-26T00:45:50.268Z,3.35
2022-07-26T00:46:21.794Z,2.15
2022-07-26T00:46:53.282Z,2.67
2022-07-26T00:47:24.933Z,2.63
2022-07-26T00:47:56.380Z,2.60
2022-07-26T00:48:27.932Z,3.05
2022-07-26T00:49:17.932Z,2.85
2022-07-26T00:49:49.806Z,2.78
2022-07-26T00:50:21.421Z,3.38
2022-07-26T00:50:54.542Z,2.58
2022-07-26T00:51:46.483Z,2.42
2022-07-26T00:52:18.319Z,2.28
2022-07-26T00:52:50.371Z,2.03
2022-07-26T00:53:23.106Z,2.58
2022-07-26T00:53:54.911Z,2.67
2022-07-26T00:54:45.840Z,2.53
2022-07-26T00:56:07.251Z,2.05
2022-07-26T00:56:38.997Z,2.33
2022-07-26T00:57:10.449Z,2.30
2022-07-26T00:57:43.191Z,2.25
2022-07-26T00:58:14.608Z,2.83
2022-07-26T00:58:46.023Z,3.17
2022-07-26T00:59:17.445Z,2.15
2022-07-26T00:59:49.333Z,2.83
2022-07-26T01:00:27.789Z,2.63
2022-07-26T01:00:59.277Z,2.80
2022-07-26T01:01:30.832Z,2.40
2022-07-26T01:02:02.805Z,2.65
2022-07-26T01:02:34.328Z,2.95
2022-07-26T01:03:06.170Z,2.50
2022-07-26T01:03:39.846Z,2.83
2022-07-26T01:04:11.949Z,3.17
2022-07-26T01:04:47.019Z,2.22
2022-07-26T01:05:18.678Z,2.20
2022-07-26T01:05:50.828Z,2.42
2022-07-26T01:06:27.140Z,2.30
2022-07-26T01:06:59.530Z,2.75
2022-07-26T01:07:49.505Z,2.50
2022-07-26T01:08:21.050Z,2.70
2022-07-26T01:08:52.848Z,2.28
2022-07-26T01:09:24.756Z,2.83
2022-07-26T01:09:57.090Z,2.50
2022-07-26T01:10:28.636Z,2.40
2022-07-26T01:11:00.097Z,2.75
2022-07-26T01:11:32.009Z,2.20
2022-07-26T01:12:21.964Z,2.80
2022-07-26T01:12:53.450Z,2.70
2022-07-26T01:13:24.933Z,2.20
2022-07-26T01:13:56.356Z,1.90
2022-07-26T01:14:28.195Z,2.92
2022-07-26T01:14:59.653Z,2.75
2022-07-26T01:15:31.114Z,2.77
2022-07-26T01:16:03.419Z,2.35
2022-07-26T01:16:35.086Z,3.45
2022-07-26T01:17:06.656Z,2.80
2022-07-26T01:17:38.677Z,2.50
2022-07-26T01:18:10.208Z,2.70
2022-07-26T01:18:41.708Z,3.17
2022-07-26T01:19:13.126Z,2.50
2022-07-26T01:20:03.716Z,2.97
2022-07-26T01:20:35.133Z,2.72
2022-07-26T01:21:13.688Z,3.17
2022-07-26T01:21:46.030Z,2.20
2022-07-26T01:22:17.478Z,2.92
2022-07-26T01:22:48.921Z,4.05
2022-07-26T01:23:20.514Z,3.13
2022-07-26T01:23:51.929Z,2.15
2022-07-26T01:25:12.577Z,3.15
2022-07-26T01:25:46.014Z,2.30
2022-07-26T01:26:20.158Z,1.95
2022-07-26T01:26:52.072Z,2.33
2022-07-26T01:27:23.939Z,2.78
2022-07-26T01:27:55.565Z,2.58
2022-07-26T01:28:27.130Z,2.50
2022-07-26T01:28:58.815Z,2.10
2022-07-26T01:29:35.966Z,2.60
2022-07-26T01:30:27.213Z,2.50
2022-07-26T01:30:58.631Z,2.53
2022-07-26T01:31:30.452Z,2.53
2022-07-26T01:32:03.951Z,2.17
2022-07-26T01:32:35.833Z,2.40
2022-07-26T01:33:07.316Z,3.25
2022-07-26T01:33:38.789Z,3.50
2022-07-26T01:34:10.553Z,3.15
2022-07-26T01:34:42.352Z,2.00
2022-07-26T01:35:13.778Z,2.40
2022-07-26T01:35:45.246Z,2.30
2022-07-26T01:36:20.266Z,2.72
2022-07-26T01:36:52.093Z,3.00
2022-07-26T01:37:23.549Z,1.98
2022-07-26T01:37:54.993Z,2.73
2022-07-26T01:38:27.135Z,2.47
2022-07-26T01:38:58.587Z,2.83
2022-07-26T01:39:29.978Z,2.92
2022-07-26T01:40:02.250Z,2.80
2022-07-26T01:40:33.676Z,2.55
2022-07-26T01:41:05.156Z,2.20
2022-07-26T01:41:38.033Z,2.88
2022-07-26T01:42:09.869Z,2.90
2022-07-26T01:42:41.953Z,3.25
2022-07-26T01:43:13.459Z,2.63
2022-07-26T01:43:45.014Z,2.40
2022-07-26T01:44:16.480Z,2.20
2022-07-26T01:44:47.898Z,2.85
2022-07-26T01:45:19.424Z,3.03
2022-07-26T01:45:50.918Z,3.22
2022-07-26T01:46:22.584Z,2.83
2022-07-26T01:46:54.038Z,2.65
2022-07-26T01:47:25.474Z,2.83
2022-07-26T01:47:56.920Z,2.90
2022-07-26T01:48:28.539Z,2.90
2022-07-26T01:49:01.948Z,2.45
2022-07-26T01:49:33.516Z,2.53
2022-07-26T01:50:07.380Z,2.95
2022-07-26T01:50:39.073Z,2.28
2022-07-26T01:51:28.924Z,3.05
2022-07-26T01:52:00.400Z,2.38
2022-07-26T01:52:31.869Z,2.53
2022-07-26T01:53:03.508Z,2.42
2022-07-26T01:53:38.004Z,2.35
2022-07-26T01:55:47.596Z,3.00
2022-07-26T01:56:19.014Z,2.45
2022-07-26T01:56:50.534Z,2.55
2022-07-26T01:57:21.953Z,2.60
2022-07-26T01:57:53.698Z,2.22
2022-07-26T01:58:25.099Z,2.70
2022-07-26T01:58:56.549Z,1.92
2022-07-26T01:59:27.934Z,2.83
2022-07-26T01:59:59.361Z,2.20
2022-07-26T02:00:31.749Z,2.58
2022-07-26T02:01:03.332Z,2.47
2022-07-26T02:01:38.916Z,2.45
2022-07-26T02:02:11.869Z,2.85
2022-07-26T02:03:20.819Z,2.95
2022-07-26T02:03:52.269Z,2.95
2022-07-26T02:04:42.359Z,2.20
2022-07-26T02:05:13.859Z,2.33
2022-07-26T02:05:45.299Z,2.90
2022-07-26T02:06:16.728Z,2.57
2022-07-26T02:06:48.153Z,2.15
2022-07-26T02:07:19.631Z,2.60
2022-07-26T02:07:51.097Z,2.20
2022-07-26T02:08:22.500Z,2.35
2022-07-26T02:08:54.823Z,2.40
2022-07-26T02:09:27.908Z,2.08
2022-07-26T02:10:04.576Z,2.22
2022-07-26T02:10:54.549Z,2.28
2022-07-26T02:11:27.100Z,2.58
2022-07-26T02:11:58.542Z,2.00
2022-07-26T02:12:30.060Z,2.30
2022-07-26T02:13:01.566Z,2.38
2022-07-26T02:13:38.355Z,2.88
2022-07-26T02:14:10.304Z,2.50
2022-07-26T02:14:41.980Z,3.05
2022-07-26T02:15:15.367Z,2.30
2022-07-26T02:15:47.097Z,2.28
2022-07-26T02:16:18.554Z,2.78
2022-07-26T02:17:08.876Z,2.10
2022-07-26T02:17:40.592Z,1.97
2022-07-26T02:19:00.865Z,2.10
2022-07-26T02:19:32.657Z,2.60
2022-07-26T02:20:05.398Z,1.92
2022-07-26T02:20:36.872Z,2.00
2022-07-26T02:21:08.792Z,2.53
2022-07-26T02:21:40.329Z,2.67
2022-07-26T02:22:11.847Z,2.45
2022-07-26T02:22:43.261Z,2.50
2022-07-26T02:23:14.666Z,1.60
2022-07-26T02:23:46.060Z,2.40
2022-07-26T02:24:17.473Z,2.50
2022-07-26T02:24:49.654Z,2.15
2022-07-26T02:25:22.173Z,2.28
2022-07-26T02:25:54.238Z,2.20
2022-07-26T02:26:25.757Z,2.22
2022-07-26T02:26:58.674Z,3.25
2022-07-26T02:27:30.109Z,2.25
2022-07-26T02:28:01.881Z,2.60
2022-07-26T02:28:33.289Z,1.90
2022-07-26T02:30:13.558Z,2.03
2022-07-26T02:30:46.369Z,2.00
2022-07-26T02:31:37.090Z,2.05
2022-07-26T02:32:08.649Z,1.35
2022-07-26T02:32:40.558Z,1.70
2022-07-26T02:33:12.414Z,1.58
2022-07-26T02:33:43.825Z,1.70
2022-07-26T02:34:15.245Z,1.88
2022-07-26T02:34:46.894Z,1.90
2022-07-26T02:35:18.345Z,1.85
2022-07-26T02:35:49.812Z,1.85
2022-07-26T02:36:21.254Z,2.03
2022-07-26T02:36:54.509Z,1.80
2022-07-26T02:37:25.905Z,2.17
2022-07-26T02:38:05.762Z,1.90
2022-07-26T02:38:37.187Z,2.10
2022-07-26T02:39:08.926Z,2.28
2022-07-26T02:39:40.359Z,1.70
2022-07-26T02:40:18.538Z,1.57
2022-07-26T02:40:50.685Z,1.70
2022-07-26T02:41:22.221Z,2.13
2022-07-26T02:42:11.960Z,1.88
2022-07-26T02:42:43.380Z,2.00
2022-07-26T02:43:14.777Z,2.03
2022-07-26T02:43:46.184Z,1.38
2022-07-26T02:44:17.701Z,1.50
2022-07-26T02:44:49.134Z,2.05
2022-07-26T02:46:10.438Z,2.00
2022-07-26T02:46:41.943Z,1.55
2022-07-26T02:47:13.406Z,1.50
2022-07-26T02:47:49.663Z,1.70
2022-07-26T02:48:21.096Z,1.77
2022-07-26T02:48:54.379Z,1.92
2022-07-26T02:49:25.825Z,1.80
2022-07-26T02:49:57.229Z,1.77
2022-07-26T02:50:29.773Z,2.42
2022-07-26T02:51:01.204Z,1.75
2022-07-26T02:51:32.610Z,1.80
2022-07-26T02:52:04.322Z,1.77
2022-07-26T02:52:35.725Z,1.60
2022-07-26T02:53:07.389Z,1.95
2022-07-26T02:53:38.777Z,1.77
2022-07-26T02:54:10.587Z,1.20
2022-07-26T02:54:42.482Z,1.42
2022-07-26T02:55:15.808Z,1.88
2022-07-26T02:55:47.250Z,1.45
2022-07-26T02:56:18.704Z,1.35
2022-07-26T02:56:50.164Z,1.17
2022-07-26T02:57:21.671Z,1.58
2022-07-26T02:57:53.466Z,1.60
2022-07-26T02:58:26.922Z,1.42
2022-07-26T02:58:58.664Z,1.70
2022-07-26T02:59:30.291Z,1.50
2022-07-26T03:00:01.826Z,1.92
2022-07-26T03:00:33.855Z,1.80
2022-07-26T03:01:05.493Z,1.67
2022-07-26T03:01:38.981Z,1.50
2022-07-26T03:02:10.663Z,2.00
2022-07-26T03:02:42.242Z,1.30
2022-07-26T03:03:14.369Z,1.30
2022-07-26T03:03:50.427Z,2.08
2022-07-26T03:04:22.707Z,1.38
2022-07-26T03:04:54.075Z,1.35
2022-07-26T03:05:44.385Z,1.30
2022-07-26T03:06:16.069Z,1.35
2022-07-26T03:06:47.572Z,1.77
2022-07-26T03:07:18.924Z,1.48
2022-07-26T03:07:50.886Z,1.47
2022-07-26T03:08:22.655Z,1.55
2022-07-26T03:08:54.049Z,0.90
2022-07-26T03:09:25.496Z,1.30
2022-07-26T03:10:15.936Z,1.33
2022-07-26T03:11:24.965Z,1.10
2022-07-26T03:11:56.312Z,1.63
2022-07-26T03:12:27.737Z,1.65
2022-07-26T03:12:59.613Z,2.08
2022-07-26T03:13:30.999Z,1.50
2022-07-26T03:14:02.753Z,1.63
2022-07-26T03:14:34.860Z,1.52
2022-07-26T03:15:06.801Z,1.35
2022-07-26T03:15:38.356Z,1.20
2022-07-26T03:16:29.740Z,1.05
2022-07-26T03:17:01.417Z,1.95
2022-07-26T03:17:32.795Z,1.20
2022-07-26T03:18:22.919Z,1.38
2022-07-26T03:18:54.291Z,1.85
2022-07-26T03:19:25.689Z,1.38
2022-07-26T03:19:57.053Z,1.77
2022-07-26T03:20:28.463Z,1.10
2022-07-26T03:20:59.824Z,1.80
2022-07-26T03:21:31.171Z,1.98
2022-07-26T03:22:02.641Z,1.52
2022-07-26T03:22:34.007Z,1.17
2022-07-26T03:23:24.120Z,1.10
2022-07-26T03:23:55.489Z,1.27
2022-07-26T03:24:26.878Z,1.33
2022-07-26T03:24:58.572Z,1.15
2022-07-26T03:25:48.673Z,1.63
2022-07-26T03:26:20.877Z,1.20
2022-07-26T03:26:52.567Z,1.50
2022-07-26T03:27:23.905Z,1.52
2022-07-26T03:27:58.444Z,1.58
2022-07-26T03:28:34.039Z,1.60
2022-07-26T03:29:05.621Z,1.45
2022-07-26T03:29:38.137Z,1.10
2022-07-26T03:30:10.360Z,1.30
2022-07-26T03:30:41.959Z,1.33
2022-07-26T03:31:13.926Z,1.27
2022-07-26T03:31:45.323Z,1.25
2022-07-26T03:32:16.672Z,0.95
2022-07-26T03:32:48.005Z,1.92
2022-07-26T03:33:19.465Z,1.30
2022-07-26T03:34:09.634Z,0.98
2022-07-26T03:34:41.269Z,1.60
2022-07-26T03:35:12.591Z,1.60
2022-07-26T03:35:43.975Z,1.45
2022-07-26T03:36:16.130Z,1.30
2022-07-26T03:36:47.762Z,1.60
2022-07-26T03:37:19.173Z,1.45
2022-07-26T03:37:50.556Z,1.27
2022-07-26T03:38:21.980Z,1.33
2022-07-26T03:38:53.345Z,1.83
2022-07-26T03:39:25.458Z,1.23
2022-07-26T03:39:56.927Z,1.65
2022-07-26T03:40:29.093Z,1.63
2022-07-26T03:41:00.642Z,1.35
2022-07-26T03:41:31.992Z,1.50
2022-07-26T03:42:04.116Z,1.17
2022-07-26T03:42:36.538Z,1.60
2022-07-26T03:43:08.119Z,1.65
2022-07-26T03:43:39.828Z,1.77
2022-07-26T03:44:11.524Z,1.48
2022-07-26T03:44:43.288Z,1.25
2022-07-26T03:45:15.944Z,1.98
2022-07-26T03:45:47.461Z,1.70
2022-07-26T03:46:19.078Z,1.60
2022-07-26T03:46:50.545Z,1.73
2022-07-26T03:47:21.987Z,1.50
2022-07-26T03:47:54.053Z,1.65
2022-07-26T03:48:25.423Z,1.45
2022-07-26T03:48:57.080Z,2.40
2022-07-26T03:49:28.613Z,1.45
2022-07-26T03:50:00.074Z,1.02
2022-07-26T03:50:31.499Z,1.25
2022-07-26T03:51:02.886Z,1.55
2022-07-26T03:51:34.332Z,1.70
2022-07-26T03:52:06.091Z,2.05
2022-07-26T03:52:37.858Z,1.47
2022-07-26T03:53:09.224Z,1.30
2022-07-26T03:53:40.689Z,1.27
2022-07-26T03:54:12.510Z,1.35
2022-07-26T03:54:43.996Z,1.17
2022-07-26T03:55:34.109Z,1.25
2022-07-26T03:56:24.656Z,1.80
2022-07-26T03:56:56.360Z,1.60
2022-07-26T03:57:28.280Z,1.63
2022-07-26T03:57:59.917Z,1.73
2022-07-26T03:58:49.775Z,1.60
2022-07-26T03:59:21.249Z,1.23
2022-07-26T03:59:52.747Z,1.20
2022-07-26T04:00:24.264Z,1.35
2022-07-26T04:00:55.606Z,1.40
2022-07-26T04:01:27.171Z,1.40
2022-07-26T04:01:58.620Z,1.45
2022-07-26T04:02:30.072Z,1.45
2022-07-26T04:03:01.588Z,1.20
2022-07-26T04:04:25.306Z,1.83
2022-07-26T04:04:56.866Z,1.33
2022-07-26T04:05:28.244Z,1.17
2022-07-26T04:06:03.798Z,1.55
2022-07-26T04:06:35.541Z,1.80
2022-07-26T04:07:07.293Z,1.42
2022-07-26T04:07:52.763Z,1.48
2022-07-26T04:08:24.841Z,1.13
2022-07-26T04:08:56.250Z,1.42
2022-07-26T04:09:27.613Z,1.40
2022-07-26T04:09:58.956Z,1.27
2022-07-26T04:10:30.346Z,1.45
2022-07-26T04:11:01.833Z,1.20
2022-07-26T04:11:34.530Z,1.50
2022-07-26T04:12:55.059Z,1.17
2022-07-26T04:13:26.556Z,1.38
2022-07-26T04:13:58.651Z,1.58
2022-07-26T04:14:30.032Z,2.38
2022-07-26T04:15:01.389Z,2.40
2022-07-26T04:15:32.836Z,2.17
2022-07-26T04:16:04.932Z,1.60
2022-07-26T04:16:41.428Z,1.42
2022-07-26T04:17:14.850Z,1.40
2022-07-26T04:17:48.149Z,1.30
2022-07-26T04:18:20.157Z,1.10
2022-07-26T04:18:51.637Z,1.20
2022-07-26T04:19:23.012Z,1.83
2022-07-26T04:19:54.364Z,1.77
2022-07-26T04:20:25.774Z,1.50
2022-07-26T04:20:57.398Z,1.17
2022-07-26T04:21:28.930Z,1.50
2022-07-26T04:22:00.310Z,1.40
2022-07-26T04:22:31.808Z,1.73
2022-07-26T04:23:03.284Z,1.65
2022-07-26T04:23:34.911Z,1.65
2022-07-26T04:24:07.098Z,1.20
2022-07-26T04:24:38.677Z,1.83
2022-07-26T04:25:10.153Z,1.48
2022-07-26T04:25:41.879Z,1.27
2022-07-26T04:26:14.193Z,1.50
2022-07-26T04:26:46.325Z,1.48
2022-07-26T04:27:17.726Z,1.23
2022-07-26T04:27:49.167Z,1.60
2022-07-26T04:28:20.749Z,1.50
2022-07-26T04:29:12.620Z,1.50
2022-07-26T04:29:43.962Z,1.90
2022-07-26T04:30:33.928Z,1.40
2022-07-26T04:31:05.496Z,1.48
2022-07-26T04:31:36.887Z,1.20
2022-07-26T04:32:08.240Z,1.43
2022-07-26T04:32:39.651Z,1.50
2022-07-26T04:33:11.169Z,1.50
2022-07-26T04:33:42.601Z,1.60
2022-07-26T04:34:13.953Z,1.90
2022-07-26T04:34:45.567Z,1.50
2022-07-26T04:35:17.317Z,1.33
2022-07-26T04:35:48.676Z,1.45
2022-07-26T04:36:20.082Z,1.48
2022-07-26T04:36:52.021Z,1.20
2022-07-26T04:37:23.458Z,1.37
2022-07-26T04:37:54.923Z,1.85
2022-07-26T04:38:26.762Z,1.33
2022-07-26T04:38:58.149Z,1.30
2022-07-26T04:39:51.728Z,1.23
2022-07-26T04:40:28.458Z,1.30
2022-07-26T04:41:00.743Z,1.42
2022-07-26T04:41:32.124Z,2.22
2022-07-26T04:42:03.712Z,1.65
2022-07-26T04:42:35.532Z,1.50
2022-07-26T04:43:06.901Z,1.10
2022-07-26T04:43:41.377Z,1.48
2022-07-26T04:44:12.739Z,1.40
2022-07-26T04:44:44.084Z,1.70
2022-07-26T04:45:15.521Z,1.35
2022-07-26T04:45:47.653Z,1.55
2022-07-26T04:46:19.350Z,1.73
2022-07-26T04:46:50.796Z,1.50
2022-07-26T04:47:22.146Z,1.40
2022-07-26T04:47:53.775Z,1.38
2022-07-26T04:48:25.713Z,1.30
2022-07-26T04:48:57.098Z,1.60
2022-07-26T04:49:28.502Z,1.33
2022-07-26T04:49:59.997Z,1.63
2022-07-26T04:50:31.459Z,1.45
2022-07-26T04:51:03.002Z,1.40
2022-07-26T04:51:34.375Z,1.40
2022-07-26T04:52:06.008Z,1.67
2022-07-26T04:53:26.399Z,1.48
2022-07-26T04:53:57.729Z,2.13
2022-07-26T04:54:29.048Z,1.48
2022-07-26T04:55:00.380Z,1.10
2022-07-26T04:55:31.793Z,1.77
2022-07-26T04:56:03.329Z,1.40
2022-07-26T04:56:34.687Z,1.50
2022-07-26T04:57:06.192Z,1.80
2022-07-26T04:57:39.264Z,1.65
2022-07-26T04:58:12.553Z,1.90
2022-07-26T04:59:02.252Z,1.20
2022-07-26T05:00:09.866Z,1.70
2022-07-26T05:01:08.551Z,1.35
2022-07-26T05:01:35.089Z,1.30
2022-07-26T05:02:06.513Z,1.92
2022-07-26T05:02:38.123Z,1.45
2022-07-26T05:03:09.606Z,1.63
2022-07-26T05:03:41.051Z,1.40
2022-07-26T05:04:12.393Z,1.73
2022-07-26T05:04:44.412Z,1.63
2022-07-26T05:05:15.940Z,2.15
2022-07-26T05:05:47.383Z,1.43
2022-07-26T05:06:18.748Z,2.05
2022-07-26T05:06:50.076Z,1.50
2022-07-26T05:07:21.389Z,1.85
2022-07-26T05:07:56.301Z,1.80
2022-07-26T05:08:27.611Z,1.80
2022-07-26T05:08:59.294Z,1.50
2022-07-26T05:09:31.001Z,1.00
2022-07-26T05:10:02.355Z,1.80
2022-07-26T05:10:36.408Z,1.52
2022-07-26T05:11:07.731Z,1.33
2022-07-26T05:11:57.796Z,1.20
2022-07-26T05:12:29.132Z,1.48
2022-07-26T05:13:01.319Z,1.40
2022-07-26T05:13:32.844Z,1.63
2022-07-26T05:14:04.801Z,2.00
2022-07-26T05:14:37.487Z,2.03
2022-07-26T05:15:13.911Z,1.50
2022-07-26T05:15:45.655Z,1.40
2022-07-26T05:16:17.913Z,1.35
2022-07-26T05:16:49.331Z,1.47
2022-07-26T05:17:20.765Z,1.73
2022-07-26T05:17:56.838Z,1.50
2022-07-26T05:18:29.914Z,1.67
2022-07-26T05:19:03.244Z,1.83
2022-07-26T05:19:34.565Z,1.52
2022-07-26T05:20:10.247Z,1.40
2022-07-26T05:20:41.696Z,1.83
2022-07-26T05:21:13.212Z,1.95
2022-07-26T05:21:44.555Z,1.70
2022-07-26T05:22:15.870Z,2.10
2022-07-26T05:22:47.236Z,1.88
2022-07-26T05:23:20.390Z,1.60
2022-07-26T05:23:51.814Z,1.30
2022-07-26T05:24:23.331Z,1.67
2022-07-26T05:24:54.691Z,1.73
2022-07-26T05:25:26.230Z,1.50
2022-07-26T05:25:57.628Z,1.25
2022-07-26T05:27:17.591Z,1.25
2022-07-26T05:27:49.023Z,1.10
2022-07-26T05:28:20.400Z,1.20
2022-07-26T05:29:10.219Z,1.20
2022-07-26T05:29:41.547Z,1.88
2022-07-26T05:30:12.963Z,1.13
2022-07-26T05:31:03.091Z,1.35
2022-07-26T05:31:34.503Z,1.45
2022-07-26T05:32:06.167Z,1.63
2022-07-26T05:32:37.556Z,1.73
2022-07-26T05:33:08.885Z,4.43
2022-07-26T05:33:40.277Z,1.73
2022-07-26T05:34:11.891Z,1.88
2022-07-26T05:34:43.344Z,1.77
2022-07-26T05:35:14.728Z,1.85
2022-07-26T05:35:46.072Z,2.00
2022-07-26T05:36:17.666Z,1.60
2022-07-26T05:36:49.020Z,1.40
2022-07-26T05:37:20.379Z,1.98
2022-07-26T05:37:51.815Z,1.95
2022-07-26T05:38:23.203Z,1.35
2022-07-26T05:38:54.753Z,1.93
2022-07-26T05:39:26.155Z,1.55
2022-07-26T05:39:57.528Z,1.60
2022-07-26T05:40:29.038Z,2.38
2022-07-26T05:41:00.360Z,1.55
2022-07-26T05:41:31.702Z,1.15
2022-07-26T05:42:03.073Z,1.70
2022-07-26T05:42:34.448Z,1.15
2022-07-26T05:43:05.842Z,1.40
2022-07-26T05:43:41.519Z,1.17
2022-07-26T05:44:13.458Z,1.60
2022-07-26T05:44:44.775Z,1.63
2022-07-26T05:45:16.586Z,1.38
2022-07-26T05:46:37.706Z,1.73
2022-07-26T05:47:09.185Z,1.55
2022-07-26T05:47:40.592Z,1.50
2022-07-26T05:48:11.967Z,2.05
2022-07-26T05:48:44.361Z,2.60
2022-07-26T05:49:15.927Z,1.73
2022-07-26T05:49:47.312Z,1.50
2022-07-26T05:50:19.570Z,1.95
2022-07-26T05:50:51.009Z,2.28
2022-07-26T05:51:22.355Z,2.20
2022-07-26T05:51:56.949Z,2.25
2022-07-26T05:52:32.325Z,2.17
2022-07-26T05:53:03.687Z,1.60
2022-07-26T05:53:35.204Z,1.52
2022-07-26T05:54:06.895Z,1.88
2022-07-26T05:54:38.533Z,1.83
2022-07-26T05:55:10.057Z,1.30
2022-07-26T05:55:41.458Z,1.88
2022-07-26T05:56:12.796Z,1.35
2022-07-26T05:56:44.542Z,1.67
2022-07-26T05:57:15.867Z,1.70
2022-07-26T05:57:50.094Z,1.10
2022-07-26T05:58:21.429Z,1.42
2022-07-26T05:58:52.898Z,1.65
2022-07-26T05:59:24.268Z,1.20
2022-07-26T05:59:55.689Z,1.05
2022-07-26T06:00:27.046Z,1.33
2022-07-26T06:00:58.373Z,1.17
2022-07-26T06:01:32.458Z,1.45
2022-07-26T06:02:04.304Z,1.50
2022-07-26T06:02:35.876Z,1.23
2022-07-26T06:03:22.194Z,1.50
2022-07-26T06:03:53.561Z,1.30
2022-07-26T06:04:26.565Z,1.63
2022-07-26T06:04:58.392Z,1.60
2022-07-26T06:05:29.720Z,1.50
2022-07-26T06:06:19.849Z,1.40
2022-07-26T06:06:51.300Z,1.08
2022-07-26T06:07:22.723Z,1.25
2022-07-26T06:07:54.072Z,1.80
2022-07-26T06:08:26.045Z,0.98
2022-07-26T06:08:57.411Z,1.23
2022-07-26T06:09:28.801Z,1.52
2022-07-26T06:10:00.162Z,1.35
2022-07-26T06:10:31.501Z,1.35
2022-07-26T06:11:03.502Z,1.33
2022-07-26T06:11:53.601Z,1.27
2022-07-26T06:12:25.101Z,0.90
2022-07-26T06:12:56.471Z,1.17
2022-07-26T06:13:27.982Z,1.48
2022-07-26T06:13:59.308Z,1.50
2022-07-26T06:14:30.653Z,1.50
2022-07-26T06:15:02.416Z,1.10
2022-07-26T06:15:33.887Z,1.63
2022-07-26T06:16:05.734Z,1.20
2022-07-26T06:16:37.269Z,1.40
2022-07-26T06:17:08.837Z,1.53
2022-07-26T06:17:41.464Z,1.52
2022-07-26T06:18:13.096Z,2.45
2022-07-26T06:18:44.479Z,1.83
2022-07-26T06:19:16.489Z,1.55
2022-07-26T06:19:48.358Z,1.30
2022-07-26T06:20:19.839Z,1.38
2022-07-26T06:20:51.295Z,1.55
2022-07-26T06:21:22.763Z,1.52
2022-07-26T06:21:54.111Z,1.42
2022-07-26T06:22:26.095Z,1.33
2022-07-26T06:22:58.579Z,1.25
2022-07-26T06:23:33.514Z,1.20
2022-07-26T06:24:06.641Z,1.70
2022-07-26T06:25:27.519Z,1.17
2022-07-26T06:25:58.931Z,1.00
2022-07-26T06:26:30.392Z,1.80
2022-07-26T06:27:05.285Z,1.42
2022-07-26T06:27:36.989Z,1.63
2022-07-26T06:28:27.139Z,0.97
2022-07-26T06:28:58.488Z,1.30
2022-07-26T06:29:48.520Z,0.90
2022-07-26T06:30:19.924Z,1.48
2022-07-26T06:30:51.364Z,1.38
2022-07-26T06:31:23.155Z,1.40
2022-07-26T06:31:54.733Z,0.80
2022-07-26T06:33:03.419Z,1.20
2022-07-26T06:33:34.774Z,0.60
2022-07-26T06:34:06.559Z,1.10
2022-07-26T06:34:41.261Z,0.80
2022-07-26T06:35:14.021Z,1.05
2022-07-26T06:35:45.420Z,0.60
2022-07-26T06:36:17.079Z,1.10
2022-07-26T06:36:48.417Z,1.08
2022-07-26T06:37:19.797Z,1.10
2022-07-26T06:37:51.281Z,0.90
2022-07-26T06:38:22.742Z,0.68
2022-07-26T06:38:54.951Z,1.15
2022-07-26T06:39:26.509Z,0.95
2022-07-26T06:40:46.550Z,0.90
2022-07-26T06:41:36.662Z,0.70
2022-07-26T06:42:08.044Z,1.10
2022-07-26T06:42:39.516Z,1.25
2022-07-26T06:43:10.852Z,1.20
2022-07-26T06:43:42.205Z,1.75
2022-07-26T06:44:13.556Z,1.58
2022-07-26T06:44:44.949Z,1.35
2022-07-26T06:45:17.234Z,1.40
2022-07-26T06:45:49.340Z,0.80
2022-07-26T06:46:21.485Z,1.92
2022-07-26T06:46:53.100Z,1.25
2022-07-26T06:47:24.488Z,2.60
2022-07-26T06:47:55.900Z,1.15
2022-07-26T06:48:47.382Z,1.10
2022-07-26T06:49:24.166Z,1.58
2022-07-26T06:49:55.564Z,1.90
2022-07-26T06:50:26.921Z,1.52
2022-07-26T06:50:58.365Z,1.08
2022-07-26T06:51:29.770Z,1.20
2022-07-26T06:52:02.405Z,1.42
2022-07-26T06:52:34.212Z,1.17
2022-07-26T06:53:05.570Z,1.60
2022-07-26T06:53:37.105Z,1.50
2022-07-26T06:54:08.918Z,1.10
2022-07-26T06:54:40.457Z,1.40
2022-07-26T06:55:12.777Z,1.30
2022-07-26T06:55:44.228Z,1.35
2022-07-26T06:56:18.445Z,1.38
2022-07-26T06:56:49.947Z,1.10
2022-07-26T06:57:21.516Z,1.20
2022-07-26T06:58:42.602Z,1.85
2022-07-26T06:59:13.960Z,2.28
2022-07-26T06:59:45.293Z,1.38
2022-07-26T07:00:17.436Z,1.23
2022-07-26T07:00:48.832Z,1.42
2022-07-26T07:01:59.524Z,1.45
2022-07-26T07:02:11.634Z,0.93
2022-07-26T07:02:43.029Z,1.13
2022-07-26T07:03:14.464Z,1.38
2022-07-26T07:03:47.661Z,1.10
2022-07-26T07:04:19.295Z,1.83
2022-07-26T07:04:50.684Z,1.38
2022-07-26T07:05:22.179Z,1.30
2022-07-26T07:05:53.611Z,1.38
2022-07-26T07:06:24.961Z,1.23
2022-07-26T07:06:57.497Z,1.10
2022-07-26T07:07:29.243Z,1.35
2022-07-26T07:08:00.619Z,1.43
2022-07-26T07:08:32.123Z,1.33
2022-07-26T07:09:03.646Z,1.10
2022-07-26T07:09:38.214Z,1.55
2022-07-26T07:10:10.343Z,1.17
2022-07-26T07:10:43.955Z,1.05
2022-07-26T07:11:33.558Z,1.10
2022-07-26T07:12:09.790Z,1.17
2022-07-26T07:12:44.630Z,1.30
2022-07-26T07:13:16.045Z,1.20
2022-07-26T07:14:05.727Z,1.13
2022-07-26T07:14:56.784Z,1.00
2022-07-26T07:15:28.112Z,0.85
2022-07-26T07:15:59.514Z,1.70
2022-07-26T07:16:30.935Z,1.45
2022-07-26T07:17:02.432Z,1.30
2022-07-26T07:17:41.721Z,1.17
2022-07-26T07:18:13.164Z,1.60
2022-07-26T07:18:44.626Z,1.70
2022-07-26T07:19:16.117Z,1.42
2022-07-26T07:19:48.121Z,1.57
2022-07-26T07:20:19.640Z,1.20
2022-07-26T07:20:50.991Z,1.10
2022-07-26T07:21:22.327Z,1.40
2022-07-26T07:21:53.696Z,1.50
2022-07-26T07:22:25.072Z,0.80
2022-07-26T07:22:56.564Z,1.17
2022-07-26T07:24:17.327Z,1.35
2022-07-26T07:24:48.769Z,1.08
2022-07-26T07:25:24.370Z,1.00
2022-07-26T07:26:01.952Z,1.50
2022-07-26T07:26:33.367Z,1.42
2022-07-26T07:27:23.872Z,1.20
2022-07-26T07:28:17.542Z,0.90
2022-07-26T07:28:50.444Z,0.88
2022-07-26T07:29:25.959Z,0.70
2022-07-26T07:30:00.579Z,1.33
2022-07-26T07:30:32.008Z,0.95
2022-07-26T07:31:03.850Z,1.00
2022-07-26T07:31:48.635Z,1.20
2022-07-26T07:32:20.743Z,0.73
2022-07-26T07:32:52.275Z,1.10
2022-07-26T07:33:23.590Z,0.90
2022-07-26T07:33:58.008Z,0.80
2022-07-26T07:34:29.391Z,1.50
2022-07-26T07:35:00.872Z,0.90
2022-07-26T07:35:32.921Z,1.38
2022-07-26T07:36:04.711Z,1.00
2022-07-26T07:36:36.045Z,0.90
2022-07-26T07:37:07.463Z,0.80
2022-07-26T07:37:58.085Z,0.93
2022-07-26T07:38:47.901Z,1.05